Time;durP1;ratioP1;P1;durP2;ratioP2;P2;SDS_P1;SDS_P2;PMS_P1;PMS_P2;Temp;Humidity;BMP_temperature;BMP_pressure;BME280_temperature;BME280_humidity;BME280_pressure;Samples;Min_cycle;Max_cycle;Signal;HPM_P1;HPM_P2
2023/03/19 00:00:06;;;;;;;42.75;40.75;;;8.10;76.60;;;;;;5060019;28;20100;-78
2023/03/19 00:02:32;;;;;;;48.20;46.10;;;8.00;77.20;;;;;;5057976;28;20099;-75
2023/03/19 00:04:58;;;;;;;63.65;60.90;;;8.00;77.90;;;;;;5058895;28;20779;-78
2023/03/19 00:07:23;;;;;;;53.05;50.60;;;7.90;78.00;;;;;;5057830;28;20029;-79
2023/03/19 00:09:49;;;;;;;65.80;63.15;;;7.90;78.20;;;;;;5059043;28;20048;-76
2023/03/19 00:12:15;;;;;;;57.90;55.50;;;7.80;78.50;;;;;;5053502;28;20032;-79
2023/03/19 00:14:41;;;;;;;48.15;46.15;;;7.80;78.80;;;;;;5060504;28;20056;-75
2023/03/19 00:17:06;;;;;;;47.85;45.65;;;7.80;78.30;;;;;;5059199;28;20076;-76
2023/03/19 00:19:32;;;;;;;54.72;52.45;;;7.90;78.00;;;;;;5061054;28;20037;-78
2023/03/19 00:21:58;;;;;;;55.78;53.25;;;7.90;78.40;;;;;;5056482;28;20130;-78
2023/03/19 00:24:24;;;;;;;51.45;49.33;;;8.00;77.80;;;;;;5051222;28;20111;-78
2023/03/19 00:26:49;;;;;;;52.10;49.97;;;8.00;78.10;;;;;;5054036;28;20079;-81
2023/03/19 00:29:15;;;;;;;47.97;45.72;;;7.90;79.00;;;;;;5054763;28;20037;-77
2023/03/19 00:31:41;;;;;;;51.42;48.92;;;7.90;79.10;;;;;;5035720;28;20496;-82
2023/03/19 00:34:08;;;;;;;65.15;62.35;;;7.90;79.10;;;;;;5061150;28;20033;-82
2023/03/19 00:36:33;;;;;;;50.70;48.55;;;7.80;79.20;;;;;;5055645;28;20132;-76
2023/03/19 00:38:59;;;;;;;50.80;48.50;;;7.80;79.40;;;;;;5059185;28;20148;-79
2023/03/19 00:41:25;;;;;;;54.55;52.30;;;7.70;79.50;;;;;;5054518;28;20029;-77
2023/03/19 00:43:57;;;;;;;49.58;47.58;;;7.70;79.60;;;;;;5055268;28;20040;-79
2023/03/19 00:46:25;;;;;;;50.63;48.58;;;7.70;79.50;;;;;;5055661;28;20391;-77
2023/03/19 00:48:54;;;;;;;49.45;47.22;;;7.70;80.30;;;;;;5044544;28;20726;-84
2023/03/19 00:51:20;;;;;;;50.78;48.63;;;7.70;80.80;;;;;;5037708;28;20029;-80
2023/03/19 00:53:46;;;;;;;47.40;45.40;;;7.70;79.70;;;;;;5059884;28;20041;-80
2023/03/19 00:56:14;;;;;;;48.92;46.72;;;7.80;79.10;;;;;;5055794;28;20024;-78
2023/03/19 00:58:40;;;;;;;45.40;43.40;;;7.80;79.00;;;;;;5059677;28;20048;-81
2023/03/19 01:01:07;;;;;;;48.97;46.97;;;7.80;79.10;;;;;;5055286;28;20029;-76
2023/03/19 01:03:33;;;;;;;44.65;42.75;;;7.70;79.40;;;;;;5054819;28;20037;-77
2023/03/19 01:05:59;;;;;;;47.05;45.08;;;7.70;79.10;;;;;;5055308;28;20070;-76
2023/03/19 01:08:26;;;;;;;44.03;42.15;;;7.70;79.10;;;;;;5056619;28;20109;-78
2023/03/19 01:10:51;;;;;;;42.42;40.70;;;7.70;79.40;;;;;;5053901;28;20029;-79
2023/03/19 01:13:17;;;;;;;44.47;42.67;;;7.70;79.40;;;;;;5053398;28;20433;-77
2023/03/19 01:15:43;;;;;;;40.85;39.22;;;7.80;80.10;;;;;;5053609;28;20115;-80
2023/03/19 01:18:10;;;;;;;40.45;38.65;;;7.70;80.40;;;;;;5054697;28;20106;-78
2023/03/19 01:20:38;;;;;;;40.22;38.42;;;7.70;80.40;;;;;;5056886;28;20033;-81
2023/03/19 01:23:05;;;;;;;38.80;37.10;;;7.60;80.00;;;;;;5054398;28;20037;-78
2023/03/19 01:25:31;;;;;;;38.88;37.20;;;7.70;80.20;;;;;;5053315;28;20036;-77
2023/03/19 01:27:56;;;;;;;38.15;36.47;;;7.70;80.00;;;;;;5048854;28;20372;-78
2023/03/19 01:30:22;;;;;;;41.15;39.17;;;7.70;80.30;;;;;;5047357;28;20391;-78
2023/03/19 01:32:48;;;;;;;39.35;37.33;;;7.60;80.80;;;;;;5056927;28;20402;-80
2023/03/19 01:35:14;;;;;;;39.00;37.20;;;7.60;81.20;;;;;;5055744;28;20047;-77
2023/03/19 01:37:41;;;;;;;39.65;37.50;;;7.60;81.50;;;;;;5056699;28;20041;-78
2023/03/19 01:40:10;;;;;;;41.58;39.70;;;7.60;81.70;;;;;;5049130;28;20498;-77
2023/03/19 01:42:51;;;;;;;39.92;38.35;;;7.60;81.40;;;;;;5052167;28;20045;-81
2023/03/19 01:45:49;;;;;;;;;;;7.60;81.60;;;;;;5051448;28;20025;-78
2023/03/19 01:48:37;;;;;;;37.58;36.08;;;7.50;81.50;;;;;;5066263;28;19912;-80
2023/03/19 01:51:06;;;;;;;40.45;38.65;;;7.50;81.60;;;;;;5053661;28;20044;-77
2023/03/19 01:53:33;;;;;;;38.88;37.28;;;7.60;81.60;;;;;;5058890;28;20020;-77
2023/03/19 01:56:09;;;;;;;39.33;37.70;;;7.60;81.40;;;;;;5049474;28;20029;-80
2023/03/19 01:58:36;;;;;;;41.58;39.67;;;7.60;81.50;;;;;;5053162;28;20036;-80
2023/03/19 02:01:02;;;;;;;39.85;38.22;;;7.60;81.60;;;;;;5053587;28;20130;-79
2023/03/19 02:03:28;;;;;;;39.72;38.03;;;7.60;81.40;;;;;;5057106;28;20025;-78
2023/03/19 02:05:55;;;;;;;38.10;36.50;;;7.60;81.30;;;;;;5051528;28;20025;-81
2023/03/19 02:08:23;;;;;;;37.42;35.90;;;7.70;81.60;;;;;;5056741;28;20027;-82
2023/03/19 02:10:50;;;;;;;38.65;36.85;;;7.60;81.00;;;;;;5049372;28;20021;-76
2023/03/19 02:13:16;;;;;;;36.72;34.92;;;7.70;81.10;;;;;;5052561;28;20039;-83
2023/03/19 02:15:41;;;;;;;37.53;35.92;;;7.60;80.60;;;;;;5032702;28;20032;-80
2023/03/19 02:18:07;;;;;;;35.63;33.78;;;7.70;80.50;;;;;;5057401;28;20122;-78
2023/03/19 02:20:42;;;;;;;32.67;31.27;;;7.70;80.20;;;;;;5054310;28;20817;-80
2023/03/19 02:23:26;;;;;;;32.47;30.98;;;7.70;80.60;;;;;;5054216;28;20107;-81
2023/03/19 02:26:08;;;;;;;31.70;30.42;;;7.70;80.40;;;;;;5050983;28;20048;-82
2023/03/19 02:28:41;;;;;;;31.80;30.42;;;7.80;80.80;;;;;;5056800;28;20064;-80
2023/03/19 02:31:07;;;;;;;32.20;30.83;;;7.80;80.60;;;;;;5051517;28;20033;-84
2023/03/19 02:33:33;;;;;;;37.33;35.72;;;7.80;80.80;;;;;;5056127;28;20091;-80
2023/03/19 02:36:00;;;;;;;33.92;32.20;;;7.80;81.50;;;;;;5047562;28;20441;-82
2023/03/19 02:38:26;;;;;;;35.65;34.17;;;7.80;82.60;;;;;;5056352;28;20707;-81
2023/03/19 02:40:58;;;;;;;35.65;33.75;;;7.70;82.90;;;;;;5051828;28;20057;-80
2023/03/19 02:43:24;;;;;;;51.65;49.45;;;7.70;83.00;;;;;;5049184;28;20025;-78
2023/03/19 02:45:50;;;;;;;52.63;50.58;;;7.70;81.10;;;;;;5033161;28;20036;-81
2023/03/19 02:48:16;;;;;;;35.28;33.88;;;7.70;81.10;;;;;;5057985;28;20028;-79
2023/03/19 02:50:42;;;;;;;33.35;31.95;;;7.90;78.60;;;;;;5054870;28;20380;-80
2023/03/19 02:53:08;;;;;;;31.40;30.00;;;8.00;78.20;;;;;;5058927;28;20082;-79
2023/03/19 02:55:34;;;;;;;26.05;24.75;;;8.00;77.70;;;;;;5054172;28;20071;-81
2023/03/19 02:58:00;;;;;;;27.80;26.60;;;8.30;72.90;;;;;;5059012;28;20028;-81
2023/03/19 03:00:25;;;;;;;25.58;24.42;;;8.40;72.80;;;;;;5056082;28;20102;-82
2023/03/19 03:02:51;;;;;;;25.25;24.25;;;8.50;71.40;;;;;;5060577;28;20124;-80
2023/03/19 03:05:17;;;;;;;30.20;29.05;;;8.70;70.50;;;;;;5057709;28;20111;-83
2023/03/19 03:07:43;;;;;;;28.70;27.60;;;9.10;66.60;;;;;;5072150;28;20040;-84
2023/03/19 03:10:10;;;;;;;27.33;26.30;;;9.10;67.20;;;;;;5057850;28;20028;-79
2023/03/19 03:12:35;;;;;;;38.05;36.55;;;9.30;65.90;;;;;;5059112;28;20259;-84
2023/03/19 03:15:01;;;;;;;38.97;37.30;;;9.30;66.20;;;;;;5052631;28;20484;-82
2023/03/19 03:17:27;;;;;;;29.25;28.05;;;9.30;66.50;;;;;;5063451;28;20040;-84
2023/03/19 03:19:53;;;;;;;35.72;34.30;;;9.40;66.60;;;;;;5058374;28;20028;-82
2023/03/19 03:22:18;;;;;;;38.13;36.72;;;9.40;66.20;;;;;;5060853;28;20049;-79
2023/03/19 03:24:44;;;;;;;27.00;25.90;;;9.40;66.60;;;;;;5038165;28;20060;-79
2023/03/19 03:27:09;;;;;;;30.52;29.33;;;9.40;66.60;;;;;;5060148;28;20029;-79
2023/03/19 03:29:35;;;;;;;27.08;25.85;;;9.40;67.20;;;;;;5052217;28;20029;-84
2023/03/19 03:32:01;;;;;;;32.42;31.17;;;9.40;68.40;;;;;;5059592;28;20036;-81
2023/03/19 03:34:26;;;;;;;26.50;25.40;;;9.30;69.10;;;;;;5056308;28;21698;-80
2023/03/19 03:36:52;;;;;;;28.05;26.98;;;9.20;69.90;;;;;;5056908;28;20032;-79
2023/03/19 03:39:18;;;;;;;29.15;27.88;;;9.10;72.00;;;;;;5053547;28;20032;-80
2023/03/19 03:41:44;;;;;;;43.45;41.28;;;9.00;74.30;;;;;;5058662;28;20036;-78
2023/03/19 03:44:10;;;;;;;41.65;39.97;;;8.80;75.40;;;;;;5055363;28;20502;-79
2023/03/19 03:46:36;;;;;;;46.80;44.88;;;8.70;76.70;;;;;;5057630;28;20025;-81
2023/03/19 03:49:01;;;;;;;50.15;48.35;;;8.50;78.10;;;;;;5040078;28;20033;-82
2023/03/19 03:51:27;;;;;;;47.97;46.17;;;8.50;78.40;;;;;;5059771;28;20043;-82
2023/03/19 03:53:53;;;;;;;48.25;46.35;;;8.40;78.70;;;;;;5058863;28;20063;-81
2023/03/19 03:56:18;;;;;;;53.55;51.58;;;8.40;78.60;;;;;;5061112;28;20056;-79
2023/03/19 03:58:44;;;;;;;44.50;42.63;;;8.40;79.00;;;;;;5061990;28;20051;-78
2023/03/19 04:01:15;;;;;;;40.60;39.00;;;8.40;79.50;;;;;;5061588;28;20021;-78
2023/03/19 04:03:41;;;;;;;37.97;36.55;;;8.30;80.80;;;;;;5055311;28;20127;-78
2023/03/19 04:06:06;;;;;;;38.33;36.88;;;8.30;81.60;;;;;;5061087;28;20107;-83
2023/03/19 04:08:32;;;;;;;38.25;36.80;;;8.20;82.40;;;;;;5057968;28;20029;-77
2023/03/19 04:10:58;;;;;;;33.83;32.50;;;8.20;83.40;;;;;;5058195;28;20039;-79
2023/03/19 04:13:24;;;;;;;33.15;31.83;;;8.20;83.80;;;;;;5055705;28;20029;-81
2023/03/19 04:15:50;;;;;;;34.15;32.70;;;8.10;84.10;;;;;;5055304;28;20116;-80
2023/03/19 04:18:15;;;;;;;36.13;34.58;;;8.10;84.00;;;;;;5058843;28;20124;-78
2023/03/19 04:20:41;;;;;;;40.20;38.65;;;8.10;84.90;;;;;;5059154;28;20121;-77
2023/03/19 04:23:07;;;;;;;44.17;42.40;;;8.10;85.00;;;;;;5057812;28;20143;-76
2023/03/19 04:25:33;;;;;;;49.78;47.90;;;8.10;84.70;;;;;;5056953;28;20450;-81
2023/03/19 04:27:58;;;;;;;51.33;49.28;;;8.10;85.70;;;;;;5054634;28;20025;-81
2023/03/19 04:30:24;;;;;;;56.65;54.42;;;8.10;86.70;;;;;;5054444;28;20024;-76
2023/03/19 04:32:50;;;;;;;57.63;55.33;;;8.10;87.00;;;;;;5059674;28;20044;-76
2023/03/19 04:35:17;;;;;;;58.03;55.38;;;8.10;87.80;;;;;;5059667;28;20510;-76
2023/03/19 04:37:47;;;;;;;48.90;47.05;;;8.10;88.40;;;;;;5054568;28;20025;-76
2023/03/19 04:40:13;;;;;;;39.42;37.80;;;8.10;88.70;;;;;;5056244;28;20121;-78
2023/03/19 04:42:40;;;;;;;40.88;39.17;;;8.00;87.80;;;;;;5052520;28;20041;-81
2023/03/19 04:45:06;;;;;;;41.60;39.95;;;8.00;88.10;;;;;;5056179;28;20024;-80
2023/03/19 04:47:32;;;;;;;43.72;41.92;;;7.90;88.10;;;;;;5053457;28;20399;-76
2023/03/19 04:49:57;;;;;;;41.58;39.97;;;7.90;89.30;;;;;;5051213;28;20036;-78
2023/03/19 04:52:23;;;;;;;40.53;39.03;;;7.80;89.40;;;;;;5054059;28;20111;-76
2023/03/19 04:54:49;;;;;;;42.30;40.63;;;7.90;88.50;;;;;;5055225;28;20074;-79
2023/03/19 04:57:14;;;;;;;44.72;42.95;;;7.90;89.90;;;;;;5053232;28;20090;-77
2023/03/19 04:59:40;;;;;;;49.17;47.28;;;8.00;90.90;;;;;;5054993;28;20162;-78
2023/03/19 05:02:06;;;;;;;65.97;63.50;;;7.80;91.60;;;;;;5057462;28;20036;-80
2023/03/19 05:04:32;;;;;;;58.28;55.95;;;7.70;93.40;;;;;;5052795;28;20029;-77
2023/03/19 05:06:58;;;;;;;54.75;52.53;;;7.70;94.80;;;;;;5060666;28;20475;-81
2023/03/19 05:09:24;;;;;;;55.40;52.88;;;7.60;94.50;;;;;;5053053;28;20032;-78
2023/03/19 05:11:50;;;;;;;35.00;33.40;;;7.60;93.80;;;;;;5055972;28;20029;-77
2023/03/19 05:14:16;;;;;;;37.97;36.47;;;7.60;94.60;;;;;;5053242;28;20028;-79
2023/03/19 05:16:41;;;;;;;34.10;32.67;;;7.60;94.30;;;;;;5053707;28;20552;-81
2023/03/19 05:19:07;;;;;;;40.78;39.08;;;7.60;94.00;;;;;;5056678;28;20532;-79
2023/03/19 05:21:33;;;;;;;27.48;26.38;;;7.50;94.10;;;;;;5055559;28;20063;-76
2023/03/19 05:23:59;;;;;;;27.25;26.10;;;7.50;95.10;;;;;;5033428;28;20095;-81
2023/03/19 05:26:24;;;;;;;28.48;27.25;;;7.60;94.70;;;;;;5039029;28;20027;-77
2023/03/19 05:28:50;;;;;;;34.78;33.35;;;7.60;94.90;;;;;;5053790;28;20035;-81
2023/03/19 05:31:16;;;;;;;39.67;38.10;;;7.50;95.10;;;;;;5057144;28;20032;-76
2023/03/19 05:33:41;;;;;;;40.03;38.42;;;7.60;95.30;;;;;;5055502;28;20040;-78
2023/03/19 05:36:07;;;;;;;35.90;34.50;;;7.50;95.00;;;;;;5059345;28;20036;-79
2023/03/19 05:38:33;;;;;;;32.83;31.23;;;7.50;95.20;;;;;;5051947;28;20044;-82
2023/03/19 05:41:04;;;;;;;25.73;24.63;;;7.50;95.20;;;;;;5062105;28;20056;-80
2023/03/19 05:43:29;;;;;;;22.15;21.05;;;7.50;95.50;;;;;;5052303;28;20103;-78
2023/03/19 05:45:55;;;;;;;25.02;23.92;;;7.40;95.80;;;;;;5058134;28;20522;-79
2023/03/19 05:48:21;;;;;;;25.98;24.83;;;7.50;96.20;;;;;;5042141;28;20029;-80
2023/03/19 05:50:47;;;;;;;22.25;21.15;;;7.50;95.90;;;;;;5052591;28;20066;-83
2023/03/19 05:53:12;;;;;;;20.73;19.83;;;7.40;96.60;;;;;;5052815;28;20082;-80
2023/03/19 05:55:38;;;;;;;21.95;20.95;;;7.40;96.90;;;;;;5040131;28;20139;-83
2023/03/19 05:58:04;;;;;;;23.83;22.83;;;7.40;97.10;;;;;;5044148;28;20079;-79
2023/03/19 06:00:30;;;;;;;24.73;23.63;;;7.40;97.70;;;;;;5043974;28;20025;-82
2023/03/19 06:02:57;;;;;;;24.42;23.25;;;7.40;97.40;;;;;;5039454;28;20373;-81
2023/03/19 06:05:23;;;;;;;23.17;22.17;;;7.40;97.20;;;;;;5045805;28;20040;-78
2023/03/19 06:07:49;;;;;;;20.40;19.50;;;7.40;96.70;;;;;;5039051;28;20334;-82
2023/03/19 06:10:15;;;;;;;21.52;20.40;;;7.40;97.00;;;;;;5052428;28;20051;-81
2023/03/19 06:12:41;;;;;;;27.85;26.20;;;7.50;97.50;;;;;;5053644;28;20032;-80
2023/03/19 06:15:07;;;;;;;110.63;104.97;;;7.60;97.30;;;;;;5028538;28;20044;-79
2023/03/19 06:17:34;;;;;;;37.05;35.60;;;7.70;97.30;;;;;;5046912;28;20064;-82
2023/03/19 06:20:00;;;;;;;34.85;33.20;;;7.80;96.80;;;;;;5055668;28;20033;-79
2023/03/19 06:22:26;;;;;;;28.77;27.58;;;7.80;97.00;;;;;;5053925;28;20079;-79
2023/03/19 06:24:52;;;;;;;27.15;25.95;;;7.90;96.10;;;;;;5053697;28;20029;-81
2023/03/19 06:27:17;;;;;;;25.35;24.35;;;8.00;94.20;;;;;;5055515;28;20025;-83
2023/03/19 06:29:43;;;;;;;21.65;20.75;;;8.10;95.10;;;;;;5055355;28;20108;-82
2023/03/19 06:32:09;;;;;;;22.80;21.55;;;8.20;94.20;;;;;;5054854;28;20115;-83
2023/03/19 06:34:35;;;;;;;18.35;17.55;;;8.30;92.00;;;;;;5050389;28;20037;-83
2023/03/19 06:37:01;;;;;;;18.73;17.90;;;8.40;91.40;;;;;;5054273;28;20029;-81
2023/03/19 06:39:27;;;;;;;19.50;18.48;;;8.50;90.70;;;;;;5051322;28;20403;-83
2023/03/19 06:41:52;;;;;;;16.90;16.10;;;8.60;89.70;;;;;;5053246;28;20060;-80
2023/03/19 06:44:18;;;;;;;18.95;17.83;;;8.70;91.10;;;;;;5054696;28;20029;-85
2023/03/19 06:46:45;;;;;;;19.63;18.73;;;8.90;88.70;;;;;;5055026;28;20048;-83
2023/03/19 06:49:10;;;;;;;19.23;18.42;;;9.00;87.50;;;;;;5036742;28;20460;-81
2023/03/19 06:51:36;;;;;;;19.77;18.88;;;9.10;89.40;;;;;;5053049;28;20119;-82
2023/03/19 06:54:01;;;;;;;17.45;16.52;;;9.10;87.50;;;;;;5050614;28;20041;-82
2023/03/19 06:56:28;;;;;;;17.52;16.80;;;9.10;90.60;;;;;;5055905;28;20033;-83
2023/03/19 06:58:54;;;;;;;21.92;20.92;;;9.00;90.60;;;;;;5053880;28;20061;-81
2023/03/19 07:01:20;;;;;;;22.42;21.42;;;8.80;89.20;;;;;;5055779;28;20469;-79
2023/03/19 07:03:46;;;;;;;21.15;20.25;;;8.70;91.10;;;;;;5056908;28;20029;-77
2023/03/19 07:06:12;;;;;;;21.30;20.40;;;8.60;92.60;;;;;;5052632;28;20039;-80
2023/03/19 07:08:37;;;;;;;20.83;19.92;;;8.50;91.80;;;;;;5053283;28;20064;-81
2023/03/19 07:11:07;;;;;;;22.50;21.60;;;8.50;93.00;;;;;;5057682;28;20033;-80
2023/03/19 07:13:33;;;;;;;23.13;22.15;;;8.60;93.60;;;;;;5052608;28;20035;-82
2023/03/19 07:15:59;;;;;;;26.20;24.90;;;8.70;94.30;;;;;;5050854;28;20029;-82
2023/03/19 07:18:25;;;;;;;28.25;26.88;;;8.70;94.80;;;;;;5054556;28;20024;-78
2023/03/19 07:20:52;;;;;;;31.13;29.83;;;8.70;94.70;;;;;;5056980;28;20394;-82
2023/03/19 07:23:17;;;;;;;22.23;21.27;;;8.70;93.90;;;;;;5052906;28;21361;-81
2023/03/19 07:25:44;;;;;;;24.75;23.70;;;8.70;94.40;;;;;;5053248;28;20037;-82
2023/03/19 07:28:10;;;;;;;26.58;25.50;;;8.70;93.00;;;;;;5051999;28;20934;-82
2023/03/19 07:30:37;;;;;;;22.25;21.20;;;8.70;94.50;;;;;;5056107;28;20029;-82
2023/03/19 07:33:03;;;;;;;21.88;20.67;;;8.80;94.10;;;;;;5049034;28;20121;-80
2023/03/19 07:35:29;;;;;;;20.77;19.90;;;8.80;93.00;;;;;;5051831;28;20054;-82
2023/03/19 07:37:55;;;;;;;24.52;23.50;;;8.90;94.50;;;;;;5054498;28;20120;-81
2023/03/19 07:40:20;;;;;;;22.40;21.30;;;8.90;93.40;;;;;;5055146;28;20050;-81
2023/03/19 07:42:46;;;;;;;24.40;23.20;;;8.90;94.00;;;;;;5057791;28;20501;-85
2023/03/19 07:45:12;;;;;;;22.45;21.45;;;8.90;94.30;;;;;;5059511;28;20091;-80
2023/03/19 07:47:39;;;;;;;17.80;16.77;;;9.10;95.10;;;;;;5054557;28;20036;-83
2023/03/19 07:50:06;;;;;;;18.15;17.20;;;9.00;91.40;;;;;;5059355;28;20063;-83
2023/03/19 07:52:33;;;;;;;17.20;16.30;;;9.10;93.90;;;;;;5056833;28;20051;-76
2023/03/19 07:54:58;;;;;;;19.08;18.17;;;9.10;93.60;;;;;;5058206;28;20028;-78
2023/03/19 07:57:25;;;;;;;18.38;17.58;;;9.10;94.20;;;;;;5057815;28;20676;-82
2023/03/19 07:59:51;;;;;;;17.52;16.63;;;9.10;93.40;;;;;;5052180;28;20051;-79
2023/03/19 08:02:17;;;;;;;16.52;15.73;;;9.20;94.30;;;;;;5056779;28;20045;-81
2023/03/19 08:04:43;;;;;;;16.42;15.63;;;9.30;94.10;;;;;;5057868;28;20124;-79
2023/03/19 08:07:12;;;;;;;17.25;16.45;;;9.30;93.90;;;;;;5055017;28;20169;-84
2023/03/19 08:09:39;;;;;;;16.38;15.57;;;9.40;95.20;;;;;;5063098;28;20111;-77
2023/03/19 08:12:06;;;;;;;16.67;15.95;;;9.50;95.00;;;;;;5051056;28;20061;-77
2023/03/19 08:14:32;;;;;;;16.30;15.23;;;9.50;94.80;;;;;;5053088;28;20123;-78
2023/03/19 08:16:58;;;;;;;14.85;14.15;;;9.40;94.80;;;;;;5052540;28;20064;-78
2023/03/19 08:19:24;;;;;;;15.02;14.23;;;9.40;94.40;;;;;;5058049;28;20059;-77
2023/03/19 08:21:50;;;;;;;15.23;14.43;;;9.50;94.60;;;;;;5058268;28;20570;-77
2023/03/19 08:24:16;;;;;;;15.30;14.60;;;9.40;93.50;;;;;;5055772;28;20049;-76
2023/03/19 08:26:42;;;;;;;13.68;12.98;;;9.40;93.30;;;;;;5054837;28;20495;-78
2023/03/19 08:29:07;;;;;;;15.18;14.38;;;9.40;92.90;;;;;;5060347;28;20029;-76
2023/03/19 08:31:33;;;;;;;14.57;13.77;;;9.40;93.30;;;;;;5054603;28;20040;-75
2023/03/19 08:34:01;;;;;;;13.73;13.07;;;9.50;93.30;;;;;;5058835;28;20420;-83
2023/03/19 08:36:27;;;;;;;13.68;13.07;;;9.60;92.30;;;;;;5052103;28;20061;-79
2023/03/19 08:38:53;;;;;;;13.98;13.27;;;9.80;92.90;;;;;;5062850;28;20029;-77
2023/03/19 08:41:20;;;;;;;13.35;12.75;;;10.00;91.50;;;;;;5053868;28;20100;-78
2023/03/19 08:43:46;;;;;;;13.20;12.50;;;10.20;92.10;;;;;;5054947;28;20499;-78
2023/03/19 08:46:12;;;;;;;13.07;12.25;;;10.30;91.70;;;;;;5053098;28;20033;-77
2023/03/19 08:48:39;;;;;;;13.00;12.38;;;10.40;88.60;;;;;;5057310;28;20040;-75
2023/03/19 08:51:05;;;;;;;12.63;12.02;;;10.50;90.80;;;;;;5053022;28;20029;-80
2023/03/19 08:53:31;;;;;;;13.20;12.55;;;10.60;90.10;;;;;;5058087;28;20132;-78
2023/03/19 08:56:02;;;;;;;12.30;11.70;;;10.90;91.70;;;;;;5054770;28;20384;-75
2023/03/19 08:58:29;;;;;;;13.18;12.43;;;11.20;91.20;;;;;;5058055;28;20085;-78
2023/03/19 09:01:02;;;;;;;14.05;12.75;;;11.20;88.80;;;;;;5052213;28;20100;-81
2023/03/19 09:03:44;;;;;;;13.55;12.55;;;11.50;88.80;;;;;;5055860;28;20028;-77
2023/03/19 09:06:13;;;;;;;12.15;11.30;;;11.70;88.10;;;;;;5051674;28;20478;-76
2023/03/19 09:08:39;;;;;;;13.52;12.82;;;11.90;84.60;;;;;;5055388;28;20585;-77
2023/03/19 09:11:04;;;;;;;13.07;12.48;;;11.80;84.20;;;;;;5055350;28;20029;-76
2023/03/19 09:13:30;;;;;;;13.27;12.68;;;11.50;79.50;;;;;;5053833;28;20060;-80
2023/03/19 09:15:56;;;;;;;12.77;12.18;;;11.40;79.90;;;;;;5055363;28;20128;-79
2023/03/19 09:18:24;;;;;;;13.95;13.25;;;11.40;74.80;;;;;;5053390;28;20021;-78
2023/03/19 09:20:51;;;;;;;13.43;12.82;;;11.70;75.90;;;;;;5054377;28;20080;-75
2023/03/19 09:23:17;;;;;;;11.98;11.27;;;11.80;70.60;;;;;;5061481;28;20036;-76
2023/03/19 09:25:43;;;;;;;12.80;12.00;;;12.10;69.20;;;;;;5054145;28;20094;-80
2023/03/19 09:28:09;;;;;;;13.05;12.45;;;12.30;68.70;;;;;;5052790;28;20102;-76
2023/03/19 09:30:35;;;;;;;12.80;12.13;;;12.60;67.80;;;;;;5054837;28;20116;-80
2023/03/19 09:33:00;;;;;;;11.50;10.90;;;12.70;65.70;;;;;;5059504;28;20063;-76
2023/03/19 09:35:30;;;;;;;13.05;12.32;;;13.00;65.60;;;;;;5054192;28;20029;-78
2023/03/19 09:37:56;;;;;;;13.35;12.65;;;13.30;66.00;;;;;;5052684;28;20498;-79
2023/03/19 09:40:27;;;;;;;13.18;12.57;;;13.30;62.80;;;;;;5055829;28;20024;-82
2023/03/19 09:43:15;;;;;;;13.40;12.60;;;13.20;64.00;;;;;;5055573;28;20024;-79
2023/03/19 09:45:41;;;;;;;14.55;13.85;;;13.10;63.80;;;;;;5054035;28;20044;-79
2023/03/19 09:48:15;;;;;;;12.52;11.90;;;13.40;62.60;;;;;;5056529;28;20480;-80
2023/03/19 09:50:41;;;;;;;11.05;10.40;;;13.80;61.90;;;;;;5049347;28;20071;-81
2023/03/19 09:53:21;;;;;;;11.60;10.95;;;13.70;60.80;;;;;;5053317;28;20470;-79
2023/03/19 09:55:52;;;;;;;10.50;9.73;;;13.70;62.80;;;;;;5051005;28;20024;-79
2023/03/19 09:58:27;;;;;;;11.45;10.93;;;14.00;59.60;;;;;;5059174;28;20036;-76
2023/03/19 10:00:54;;;;;;;10.88;10.27;;;14.00;58.00;;;;;;5054476;28;20615;-79
2023/03/19 10:03:38;;;;;;;10.60;10.10;;;14.20;60.00;;;;;;5056860;28;20037;-81
2023/03/19 10:06:32;;;;;;;11.88;11.20;;;14.10;58.00;;;;;;5055320;28;20512;-77
2023/03/19 10:09:20;;;;;;;11.02;10.25;;;13.80;58.60;;;;;;5053319;28;20098;-78
2023/03/19 10:12:16;;;;;;;10.82;10.27;;;14.10;57.70;;;;;;5058418;28;20017;-81
2023/03/19 10:14:59;;;;;;;11.82;11.23;;;14.40;57.40;;;;;;5055312;28;20025;-79
2023/03/19 10:17:31;;;;;;;9.48;8.73;;;14.00;57.50;;;;;;5055131;28;20502;-78
2023/03/19 10:20:32;;;;;;;10.80;10.30;;;13.90;55.10;;;;;;5052130;28;20602;-77
2023/03/19 10:23:09;;;;;;;;;;;13.70;55.10;;;;;;5052333;28;20045;-79
2023/03/19 10:25:40;;;;;;;8.85;8.43;;;13.60;58.20;;;;;;5052365;28;19970;-80
2023/03/19 10:28:17;;;;;;;9.00;8.43;;;13.80;57.50;;;;;;5055619;28;20033;-81
2023/03/19 10:30:52;;;;;;;9.20;8.70;;;13.40;57.50;;;;;;5049220;28;20087;-78
2023/03/19 10:33:30;;;;;;;9.35;8.90;;;13.30;56.00;;;;;;5055427;28;20032;-82
2023/03/19 10:36:00;;;;;;;9.93;9.43;;;13.30;57.00;;;;;;5056926;28;20555;-82
2023/03/19 10:38:27;;;;;;;12.18;11.50;;;13.70;56.70;;;;;;5050769;28;20079;-81
2023/03/19 10:41:29;;;;;;;10.70;10.20;;;14.00;56.50;;;;;;5053503;28;20048;-76
2023/03/19 10:44:04;;;;;;;8.70;8.20;;;14.70;55.00;;;;;;5054318;28;20032;-78
2023/03/19 10:46:40;;;;;;;11.68;11.07;;;14.90;54.70;;;;;;5053980;28;20036;-79
2023/03/19 10:49:12;;;;;;;17.83;16.42;;;14.20;53.50;;;;;;5053675;28;20499;-82
2023/03/19 10:51:38;;;;;;;9.15;8.65;;;14.00;53.50;;;;;;5050583;28;20515;-81
2023/03/19 10:54:22;;;;;;;9.15;8.65;;;14.40;56.20;;;;;;5050833;28;20017;-82
2023/03/19 10:56:49;;;;;;;17.38;16.33;;;14.80;54.40;;;;;;5056758;28;20112;-80
2023/03/19 10:59:29;;;;;;;9.55;9.05;;;14.20;52.50;;;;;;5050842;28;20021;-80
2023/03/19 11:01:57;;;;;;;9.23;8.50;;;14.50;55.50;;;;;;5053173;28;20025;-78
2023/03/19 11:04:28;;;;;;;9.48;8.98;;;14.30;54.80;;;;;;5053317;28;20031;-79
2023/03/19 11:07:12;;;;;;;9.25;8.75;;;14.70;53.30;;;;;;5053782;28;20032;-76
2023/03/19 11:09:47;;;;;;;9.38;8.88;;;14.40;52.90;;;;;;5051333;28;20140;-77
2023/03/19 11:12:18;;;;;;;8.57;8.07;;;14.30;54.80;;;;;;5052940;28;20032;-79
2023/03/19 11:14:45;;;;;;;;;;;13.90;54.00;;;;;;5052975;28;20025;-80
2023/03/19 11:17:14;;;;;;;9.18;8.63;;;14.00;54.10;;;;;;5060723;28;19913;-77
2023/03/19 11:19:41;;;;;;;9.95;9.25;;;14.30;54.10;;;;;;5056538;28;20075;-78
2023/03/19 11:22:09;;;;;;;8.30;7.80;;;14.60;53.10;;;;;;5058557;28;20418;-81
2023/03/19 11:24:40;;;;;;;8.55;8.05;;;14.50;52.90;;;;;;5056634;28;20036;-79
2023/03/19 11:27:08;;;;;;;8.63;8.13;;;14.60;51.10;;;;;;5064045;28;20440;-77
2023/03/19 11:29:39;;;;;;;10.52;10.02;;;14.60;52.80;;;;;;5054836;28;20414;-78
2023/03/19 11:32:14;;;;;;;8.90;8.32;;;14.60;54.50;;;;;;5059480;28;20029;-82
2023/03/19 11:34:51;;;;;;;9.68;9.05;;;14.70;52.00;;;;;;5056080;28;20037;-79
2023/03/19 11:37:27;;;;;;;10.68;10.00;;;14.40;53.20;;;;;;5062656;28;20075;-81
2023/03/19 11:40:11;;;;;;;9.35;8.82;;;14.50;51.20;;;;;;5054092;28;20627;-80
2023/03/19 11:42:52;;;;;;;8.38;7.88;;;15.10;53.20;;;;;;5056735;28;20029;-77
2023/03/19 11:45:29;;;;;;;8.15;7.70;;;16.10;50.30;;;;;;5055337;28;20506;-79
2023/03/19 11:48:32;;;;;;;8.63;8.13;;;17.10;49.10;;;;;;5056908;28;20025;-77
2023/03/19 11:51:04;;;;;;;8.80;8.20;;;16.70;45.30;;;;;;5057785;28;20437;-77
2023/03/19 11:53:34;;;;;;;8.93;8.43;;;16.30;45.70;;;;;;5054187;28;20062;-79
2023/03/19 11:56:19;;;;;;;9.68;9.18;;;16.60;46.70;;;;;;5057984;28;20395;-78
2023/03/19 11:59:22;;;;;;;9.45;8.85;;;16.70;46.50;;;;;;5057838;28;20103;-79
2023/03/19 12:02:15;;;;;;;9.52;8.93;;;17.10;47.30;;;;;;5033887;28;20037;-77
2023/03/19 12:04:53;;;;;;;9.07;8.57;;;17.90;44.30;;;;;;5051328;28;20048;-78
2023/03/19 12:07:28;;;;;;;9.55;8.90;;;18.10;42.30;;;;;;5058384;28;20021;-75
2023/03/19 12:10:19;;;;;;;10.43;9.82;;;17.80;43.10;;;;;;5055577;28;20060;-77
2023/03/19 12:13:27;;;;;;;10.60;10.02;;;17.70;43.80;;;;;;5058981;28;20033;-77
2023/03/19 12:16:20;;;;;;;10.90;10.07;;;17.50;45.70;;;;;;5061700;28;20024;-78
2023/03/19 12:19:27;;;;;;;9.60;8.90;;;17.50;46.40;;;;;;5060267;28;20031;-77
2023/03/19 12:22:04;;;;;;;10.88;10.05;;;17.30;44.10;;;;;;5059475;28;20414;-77
2023/03/19 12:25:06;;;;;;;10.90;10.30;;;17.30;45.40;;;;;;5056216;28;20028;-77
2023/03/19 12:27:38;;;;;;;14.15;13.23;;;17.20;46.30;;;;;;5053046;28;20029;-76
2023/03/19 12:30:31;;;;;;;12.23;11.50;;;17.10;44.50;;;;;;5054055;28;20489;-77
2023/03/19 12:33:26;;;;;;;11.32;10.73;;;16.50;46.60;;;;;;5057243;28;20063;-76
2023/03/19 12:35:54;;;;;;;9.27;8.68;;;17.50;44.80;;;;;;5061716;28;20153;-79
2023/03/19 12:38:40;;;;;;;11.75;11.15;;;17.50;44.20;;;;;;5057039;28;20040;-76
2023/03/19 12:41:13;;;;;;;10.63;10.13;;;17.60;44.80;;;;;;5054433;28;20052;-78
2023/03/19 12:44:00;;;;;;;12.88;12.18;;;17.90;43.60;;;;;;5059382;28;20044;-76
2023/03/19 12:47:03;;;;;;;11.05;10.45;;;18.50;43.70;;;;;;5064809;28;20037;-76
2023/03/19 12:49:40;;;;;;;9.57;9.05;;;17.70;40.20;;;;;;5058171;28;20029;-77